Time;durP1;ratioP1;P1;durP2;ratioP2;P2;SDS_P1;SDS_P2;PMS_P1;PMS_P2;Temp;Humidity;BMP_temperature;BMP_pressure;BME280_temperature;BME280_humidity;BME280_pressure;Samples;Min_cycle;Max_cycle;Signal;HPM_P1;HPM_P2
2023/06/04 00:02:26;;;;;;;0.60;0.60;;;;;;;17.77;58.80;95390.34;4385877;32;20196;-63
2023/06/04 00:04:56;;;;;;;0.87;0.87;;;;;;;17.78;59.19;95386.53;4376111;32;20287;-63
2023/06/04 00:07:22;;;;;;;1.90;1.80;;;;;;;17.57;59.54;95387.75;4366639;32;20256;-63
2023/06/04 00:09:49;;;;;;;1.97;1.27;;;;;;;17.60;60.33;95385.19;4351008;32;20326;-63
2023/06/04 00:12:15;;;;;;;1.27;1.23;;;;;;;17.61;59.87;95386.75;4366063;32;20192;-63
2023/06/04 00:14:42;;;;;;;0.80;0.80;;;;;;;17.50;58.27;95391.75;4358689;32;20188;-64
2023/06/04 00:17:09;;;;;;;1.10;1.10;;;;;;;17.52;57.50;95384.16;4355382;32;20293;-64
2023/06/04 00:19:35;;;;;;;0.80;0.80;;;;;;;17.50;58.38;95383.72;4376130;32;20197;-63
2023/06/04 00:22:06;;;;;;;1.07;0.97;;;;;;;17.52;59.45;95383.38;4374337;32;20208;-63
2023/06/04 00:24:34;;;;;;;3.53;1.67;;;;;;;17.49;59.96;95373.31;4356065;32;20215;-63
2023/06/04 00:27:01;;;;;;;0.83;0.83;;;;;;;17.61;59.82;95375.22;4354192;32;20251;-63
2023/06/04 00:29:29;;;;;;;2.93;2.07;;;;;;;17.73;59.84;95376.03;4359658;32;20193;-63
2023/06/04 00:31:54;;;;;;;1.37;1.27;;;;;;;17.69;59.17;95372.44;4351495;32;20193;-63
2023/06/04 00:34:24;;;;;;;1.17;1.07;;;;;;;17.67;58.81;95376.56;4348720;32;20206;-63
2023/06/04 00:36:49;;;;;;;0.87;0.87;;;;;;;17.57;58.81;95371.66;4348516;32;20189;-64
2023/06/04 00:39:14;;;;;;;0.73;0.73;;;;;;;17.32;59.53;95373.53;4343187;32;20270;-63
2023/06/04 00:41:41;;;;;;;3.20;1.33;;;;;;;17.30;60.34;95375.78;4382875;32;20214;-64
2023/06/04 00:44:08;;;;;;;1.07;1.07;;;;;;;17.35;60.53;95372.88;4378359;32;20197;-64
2023/06/04 00:46:37;;;;;;;0.70;0.70;;;;;;;17.27;59.44;95379.91;4358589;32;20234;-64
2023/06/04 00:49:05;;;;;;;1.27;1.17;;;;;;;17.46;61.13;95376.66;4332373;32;20193;-64
2023/06/04 00:51:33;;;;;;;0.87;0.87;;;;;;;17.54;60.36;95375.78;4356570;32;20189;-64
2023/06/04 00:54:01;;;;;;;0.70;0.70;;;;;;;17.63;59.97;95368.41;4354900;32;20205;-64
2023/06/04 00:56:29;;;;;;;1.97;1.87;;;;;;;17.46;59.75;95376.66;4348446;32;20180;-64
2023/06/04 00:59:00;;;;;;;1.50;1.17;;;;;;;17.46;59.87;95373.97;4344560;32;20335;-64
2023/06/04 01:01:53;;;;;;;4.00;1.10;;;;;;;17.59;60.31;95375.56;4356791;32;20189;-64
2023/06/04 01:04:41;;;;;;;0.77;0.77;;;;;;;17.37;58.40;95370.66;4371636;32;20196;-64
2023/06/04 01:07:12;;;;;;;0.73;0.73;;;;;;;17.38;59.93;95378.34;4360732;32;20279;-64
2023/06/04 01:09:38;;;;;;;1.07;0.90;;;;;;;17.25;60.11;95367.97;4345525;32;20219;-64
2023/06/04 01:12:11;;;;;;;1.80;1.70;;;;;;;17.39;60.91;95379.12;4318650;32;20212;-64
2023/06/04 01:14:43;;;;;;;0.97;0.97;;;;;;;17.32;59.52;95374.31;4365369;32;20192;-64
2023/06/04 01:17:51;;;;;;;0.87;0.87;;;;;;;17.42;61.26;95378.47;4372732;32;20250;-64
2023/06/04 01:20:32;;;;;;;1.27;1.20;;;;;;;17.23;58.62;95380.94;4358207;32;20201;-64
2023/06/04 01:23:47;;;;;;;2.70;1.53;;;;;;;17.12;59.93;95392.06;4351255;32;20208;-64
2023/06/04 01:26:15;;;;;;;2.30;1.17;;;;;;;17.15;62.10;95391.41;4298629;33;20237;-64
2023/06/04 01:28:43;;;;;;;1.13;1.03;;;;;;;16.95;60.59;95386.91;4314735;33;20213;-64
2023/06/04 01:31:13;;;;;;;0.87;0.87;;;;;;;17.08;60.89;95391.16;4289828;33;20203;-64
2023/06/04 01:33:40;;;;;;;0.93;0.93;;;;;;;17.05;60.09;95391.81;4291683;33;20199;-64
2023/06/04 01:36:10;;;;;;;0.50;0.50;;;;;;;17.11;62.25;95393.19;4287108;33;20186;-64
2023/06/04 01:38:35;;;;;;;0.97;0.97;;;;;;;16.81;60.39;95391.78;4285882;33;20190;-64
2023/06/04 01:41:01;;;;;;;0.57;0.57;;;;;;;16.94;60.38;95390.69;4298792;33;20251;-64
2023/06/04 01:43:30;;;;;;;1.07;1.07;;;;;;;16.80;60.76;95390.22;4320821;32;20192;-64
2023/06/04 01:45:57;;;;;;;0.50;0.50;;;;;;;16.98;60.74;95391.59;4367327;32;20196;-64
2023/06/04 01:48:25;;;;;;;5.50;1.63;;;;;;;16.99;61.76;95392.38;4373989;32;20213;-64
2023/06/04 01:50:51;;;;;;;1.23;0.80;;;;;;;16.99;60.81;95392.38;4372640;32;20385;-64
2023/06/04 01:53:24;;;;;;;1.20;1.20;;;;;;;16.93;60.99;95391.81;4334075;32;20260;-64
2023/06/04 01:55:51;;;;;;;0.50;0.50;;;;;;;17.05;60.47;95391.03;4357614;32;20278;-64
2023/06/04 01:58:22;;;;;;;0.93;0.93;;;;;;;16.75;60.52;95404.59;4364213;32;20232;-64
2023/06/04 02:00:52;;;;;;;1.13;1.13;;;;;;;16.83;61.35;95397.59;4371071;32;20185;-64
2023/06/04 02:03:20;;;;;;;0.73;0.73;;;;;;;16.73;60.50;95400.69;4371102;32;20273;-64
2023/06/04 02:05:51;;;;;;;1.03;0.93;;;;;;;16.85;60.66;95398.03;4367079;32;20188;-63
2023/06/04 02:08:20;;;;;;;2.47;1.37;;;;;;;16.81;60.91;95408.66;4374938;32;20192;-63
2023/06/04 02:10:47;;;;;;;0.60;0.60;;;;;;;16.75;59.85;95407.28;4374645;32;20192;-63
2023/06/04 02:13:14;;;;;;;1.57;0.90;;;;;;;16.73;61.64;95404.16;4370467;32;20189;-63
2023/06/04 02:15:41;;;;;;;0.70;0.70;;;;;;;16.76;61.16;95413.44;4360830;32;20242;-63
2023/06/04 02:18:20;;;;;;;0.63;0.63;;;;;;;16.59;61.54;95403.63;4363651;32;20238;-63
2023/06/04 02:20:49;;;;;;;0.50;0.50;;;;;;;16.70;60.20;95407.47;4357046;32;20275;-63
2023/06/04 02:23:19;;;;;;;2.57;0.87;;;;;;;16.68;62.28;95401.66;4361132;32;20261;-63
2023/06/04 02:25:45;;;;;;;1.03;1.03;;;;;;;16.82;60.54;95401.41;4376207;32;20207;-63
2023/06/04 02:28:12;;;;;;;4.80;1.40;;;;;;;16.69;60.54;95407.81;4335026;32;20299;-63
2023/06/04 02:30:39;;;;;;;1.43;1.43;;;;;;;16.59;60.12;95403.63;4353716;32;20207;-63
2023/06/04 02:33:09;;;;;;;0.97;0.97;;;;;;;16.57;60.57;95405.84;4376492;32;20193;-64
2023/06/04 02:35:37;;;;;;;0.90;0.90;;;;;;;16.56;60.52;95404.28;4367550;32;20209;-64
2023/06/04 02:38:05;;;;;;;0.80;0.80;;;;;;;16.48;61.33;95408.59;4360910;32;20261;-63
2023/06/04 02:40:32;;;;;;;0.63;0.63;;;;;;;16.30;61.44;95412.53;4376839;32;20207;-64
2023/06/04 02:42:59;;;;;;;1.03;1.03;;;;;;;16.29;62.29;95410.94;4371460;32;20261;-63
2023/06/04 02:45:28;;;;;;;0.80;0.80;;;;;;;16.55;61.51;95416.09;4389288;32;20207;-63
2023/06/04 02:47:58;;;;;;;2.00;1.43;;;;;;;16.34;62.10;95420.69;4329393;32;20196;-63
2023/06/04 02:50:27;;;;;;;0.60;0.60;;;;;;;16.21;62.52;95416.38;4379485;32;20189;-63
2023/06/04 02:52:55;;;;;;;1.03;0.77;;;;;;;16.35;61.82;95415.00;4372458;32;20200;-63
2023/06/04 02:55:21;;;;;;;5.20;1.53;;;;;;;16.25;61.62;95412.72;4360121;32;20271;-63
2023/06/04 02:57:49;;;;;;;1.10;1.00;;;;;;;16.14;61.62;95414.22;4363459;32;21110;-63
2023/06/04 03:00:16;;;;;;;1.03;1.00;;;;;;;16.25;61.59;95412.72;4364182;32;20224;-63
2023/06/04 03:02:46;;;;;;;1.30;1.27;;;;;;;16.19;60.33;95414.03;4364825;32;20201;-63
2023/06/04 03:05:17;;;;;;;0.70;0.70;;;;;;;16.22;61.54;95415.25;4320082;32;20200;-63
2023/06/04 03:07:44;;;;;;;0.83;0.83;;;;;;;16.32;62.05;95417.56;4346486;32;20261;-63
2023/06/04 03:10:14;;;;;;;0.47;0.47;;;;;;;16.16;62.03;95412.00;4353057;32;20240;-63
2023/06/04 03:12:40;;;;;;;0.97;0.77;;;;;;;16.20;60.86;95415.59;4359687;32;20281;-63
2023/06/04 03:15:09;;;;;;;0.70;0.70;;;;;;;16.30;61.71;95411.75;4352866;32;20219;-64
2023/06/04 03:17:36;;;;;;;0.87;0.87;;;;;;;16.34;61.47;95416.12;4353730;32;20242;-64
2023/06/04 03:20:03;;;;;;;1.30;0.70;;;;;;;16.06;60.09;95417.72;4372731;32;20197;-64
2023/06/04 03:22:33;;;;;;;0.53;0.53;;;;;;;16.08;60.72;95420.87;4336728;32;20201;-64
2023/06/04 03:24:59;;;;;;;1.17;0.60;;;;;;;16.21;61.06;95427.09;4366427;32;20196;-64
2023/06/04 03:27:26;;;;;;;2.43;1.10;;;;;;;16.27;61.10;95425.78;4372482;32;20238;-64
2023/06/04 03:29:54;;;;;;;2.43;1.37;;;;;;;16.37;62.69;95428.84;4360598;32;20212;-64
2023/06/04 03:32:21;;;;;;;6.63;1.43;;;;;;;16.46;60.74;95429.56;4373864;32;20215;-64
2023/06/04 03:34:47;;;;;;;1.27;1.20;;;;;;;16.54;60.93;95429.81;4372398;32;20184;-64
2023/06/04 03:37:13;;;;;;;1.27;1.17;;;;;;;16.35;59.75;95438.31;4374955;32;20193;-64
2023/06/04 03:39:40;;;;;;;1.00;1.00;;;;;;;16.27;61.26;95444.50;4373005;32;20193;-64
2023/06/04 03:42:10;;;;;;;0.70;0.70;;;;;;;16.40;60.95;95441.59;4386422;32;20264;-63
2023/06/04 03:44:35;;;;;;;1.63;0.60;;;;;;;16.50;61.56;95446.53;4364836;32;20200;-62
2023/06/04 03:47:01;;;;;;;2.97;1.53;;;;;;;16.39;60.48;95445.38;4333390;32;20204;-63
2023/06/04 03:49:29;;;;;;;1.23;1.23;;;;;;;16.24;61.97;95450.50;4360467;32;20230;-63
2023/06/04 03:51:56;;;;;;;1.50;1.13;;;;;;;16.07;61.85;95451.41;4350914;32;20216;-64
2023/06/04 03:54:23;;;;;;;1.00;0.83;;;;;;;16.13;61.87;95455.47;4349679;32;20189;-64
2023/06/04 03:56:49;;;;;;;0.70;0.70;;;;;;;16.16;61.91;95454.84;4358618;32;20307;-64
2023/06/04 03:59:15;;;;;;;8.80;1.17;;;;;;;16.10;60.04;95453.44;4370609;32;20188;-63
2023/06/04 04:01:42;;;;;;;0.73;0.73;;;;;;;15.98;61.06;95453.38;4356668;32;20307;-64
2023/06/04 04:04:10;;;;;;;0.93;0.93;;;;;;;16.25;61.76;95455.53;4360997;32;20207;-64
2023/06/04 04:06:38;;;;;;;0.63;0.63;;;;;;;16.29;63.06;95453.00;4386752;32;20197;-64
2023/06/04 04:09:06;;;;;;;0.60;0.60;;;;;;;16.47;62.70;95452.56;4368677;32;20188;-64
2023/06/04 04:11:32;;;;;;;0.90;0.90;;;;;;;16.57;61.70;95453.28;4374345;32;20192;-64
2023/06/04 04:13:58;;;;;;;0.97;0.97;;;;;;;16.59;61.21;95448.38;4386586;32;20199;-64
2023/06/04 04:16:25;;;;;;;1.80;1.37;;;;;;;16.72;62.16;95452.69;4369364;32;20193;-64
2023/06/04 04:18:52;;;;;;;0.90;0.90;;;;;;;16.81;61.63;95453.41;4387804;32;20189;-63
2023/06/04 04:21:18;;;;;;;0.70;0.70;;;;;;;16.74;60.34;95455.84;4349274;32;20201;-63
2023/06/04 04:23:46;;;;;;;1.70;1.23;;;;;;;16.76;61.48;95453.63;4344621;32;20188;-63
2023/06/04 04:26:16;;;;;;;0.73;0.73;;;;;;;16.49;61.89;95453.00;4353592;32;20211;-64
2023/06/04 04:28:43;;;;;;;0.80;0.80;;;;;;;16.43;61.65;95462.34;4372006;32;20188;-64
2023/06/04 04:31:10;;;;;;;1.23;1.13;;;;;;;16.28;61.23;95454.12;4371222;32;20196;-64
2023/06/04 04:33:39;;;;;;;0.80;0.80;;;;;;;16.33;60.58;95468.09;4365742;32;20209;-63
2023/06/04 04:36:13;;;;;;;1.00;1.00;;;;;;;16.42;61.79;95470.69;4357109;32;20244;-64
2023/06/04 04:38:42;;;;;;;0.67;0.67;;;;;;;16.36;59.96;95472.03;4386286;32;20200;-64
2023/06/04 04:41:11;;;;;;;2.63;1.47;;;;;;;16.20;63.27;95466.47;4369693;32;20188;-64
2023/06/04 04:43:39;;;;;;;7.93;0.87;;;;;;;16.21;62.34;95470.69;4351069;32;20220;-64
2023/06/04 04:46:06;;;;;;;1.73;1.30;;;;;;;16.27;62.56;95471.28;4368111;32;20192;-64
2023/06/04 04:48:34;;;;;;;1.37;1.27;;;;;;;16.28;61.57;95476.31;4349081;32;20189;-64
2023/06/04 04:51:00;;;;;;;2.63;1.47;;;;;;;16.27;62.59;95485.47;4379200;32;20185;-64
2023/06/04 04:53:27;;;;;;;0.83;0.83;;;;;;;16.30;62.35;95484.03;4380547;32;20184;-64
2023/06/04 04:55:52;;;;;;;1.40;1.30;;;;;;;16.21;60.52;95478.72;4369979;32;20192;-64
2023/06/04 04:58:18;;;;;;;4.00;1.17;;;;;;;16.30;62.12;95481.34;4376218;32;20517;-64
2023/06/04 05:00:47;;;;;;;0.97;0.97;;;;;;;16.15;62.02;95482.72;4376761;32;20197;-64
2023/06/04 05:03:15;;;;;;;0.80;0.80;;;;;;;16.13;62.39;95479.56;4376341;32;20184;-64
2023/06/04 05:05:43;;;;;;;1.33;1.23;;;;;;;16.30;60.89;95484.81;4380141;32;20326;-64
2023/06/04 05:08:09;;;;;;;0.80;0.80;;;;;;;16.40;61.91;95481.75;4376630;32;20214;-64
2023/06/04 05:10:36;;;;;;;0.83;0.83;;;;;;;16.36;62.28;95483.53;4347709;32;20200;-64
2023/06/04 05:13:06;;;;;;;0.80;0.80;;;;;;;16.37;62.53;95485.09;4360209;32;20185;-64
2023/06/04 05:15:33;;;;;;;0.73;0.73;;;;;;;16.54;61.91;95492.22;4369320;32;20240;-64
2023/06/04 05:18:01;;;;;;;1.00;1.00;;;;;;;16.63;61.16;95487.59;4376793;32;20188;-64
2023/06/04 05:20:29;;;;;;;1.17;1.17;;;;;;;16.57;61.71;95493.47;4359183;32;20197;-64
2023/06/04 05:22:55;;;;;;;0.63;0.60;;;;;;;16.47;62.72;95494.63;4378596;32;20188;-64
2023/06/04 05:25:23;;;;;;;0.97;0.97;;;;;;;16.54;62.64;95499.47;4379360;32;20208;-64
2023/06/04 05:27:54;;;;;;;2.17;1.87;;;;;;;16.61;61.38;95505.09;4351954;32;20200;-64
2023/06/04 05:30:22;;;;;;;0.40;0.40;;;;;;;16.57;60.18;95501.50;4344169;32;20240;-64
2023/06/04 05:32:50;;;;;;;0.73;0.73;;;;;;;16.54;61.51;95504.81;4369839;32;20293;-64
2023/06/04 05:35:16;;;;;;;0.80;0.80;;;;;;;16.67;62.07;95503.78;4356686;32;20192;-64
2023/06/04 05:37:45;;;;;;;1.80;1.63;;;;;;;16.73;60.88;95497.13;4355508;32;20204;-63
2023/06/04 05:40:17;;;;;;;0.67;0.67;;;;;;;16.75;61.58;95506.41;4372414;32;20278;-64
2023/06/04 05:42:45;;;;;;;1.33;1.33;;;;;;;16.40;59.76;95503.19;4377152;32;20193;-64
2023/06/04 05:45:12;;;;;;;3.47;1.20;;;;;;;16.54;60.44;95512.84;4358015;32;20240;-64
2023/06/04 05:47:38;;;;;;;2.57;1.13;;;;;;;16.39;59.99;95512.31;4364398;32;20184;-64
2023/06/04 05:50:05;;;;;;;0.30;0.30;;;;;;;16.57;60.60;95509.53;4359658;32;20193;-64
2023/06/04 05:52:36;;;;;;;1.07;1.07;;;;;;;16.68;60.06;95518.75;4362462;32;20232;-64
2023/06/04 05:55:02;;;;;;;0.73;0.73;;;;;;;16.74;60.25;95530.84;4355954;32;20263;-64
2023/06/04 05:57:27;;;;;;;0.77;0.77;;;;;;;16.77;60.27;95530.22;4379469;32;20189;-64
2023/06/04 05:59:54;;;;;;;0.90;0.90;;;;;;;16.78;59.69;95531.78;4367166;32;20189;-64
2023/06/04 06:02:20;;;;;;;2.20;1.57;;;;;;;16.84;59.66;95525.09;4377358;32;20211;-64
2023/06/04 06:04:48;;;;;;;0.83;0.83;;;;;;;16.86;60.20;95533.59;4387557;32;20248;-64
2023/06/04 06:07:15;;;;;;;1.23;1.23;;;;;;;16.91;59.98;95525.34;4369426;32;20260;-64
2023/06/04 06:09:44;;;;;;;0.57;0.57;;;;;;;17.01;58.48;95529.53;4341470;32;20216;-64
2023/06/04 06:12:09;;;;;;;0.87;0.87;;;;;;;16.71;58.62;95531.50;4367404;32;20183;-64
2023/06/04 06:14:36;;;;;;;0.70;0.70;;;;;;;16.71;58.02;95526.16;4374512;32;20196;-64
2023/06/04 06:17:06;;;;;;;0.70;0.70;;;;;;;16.86;59.68;95528.22;4375219;32;20249;-64
2023/06/04 06:19:33;;;;;;;2.70;1.40;;;;;;;17.15;60.49;95530.81;4374251;32;20193;-64
2023/06/04 06:21:58;;;;;;;1.07;1.00;;;;;;;17.28;58.79;95533.53;4343362;32;20247;-64
2023/06/04 06:24:25;;;;;;;0.87;0.80;;;;;;;17.34;56.00;95534.91;4347914;32;20238;-64
2023/06/04 06:26:50;;;;;;;0.43;0.43;;;;;;;17.38;58.71;95538.50;4374410;32;20296;-64
2023/06/04 06:29:19;;;;;;;0.47;0.47;;;;;;;17.57;59.04;95532.63;4369549;32;20189;-64
2023/06/04 06:31:44;;;;;;;1.40;1.17;;;;;;;17.72;59.72;95538.16;4373379;32;20192;-64
2023/06/04 06:34:14;;;;;;;3.40;1.17;;;;;;;17.75;56.96;95537.50;4370856;32;20192;-64
2023/06/04 06:36:41;;;;;;;1.43;1.40;;;;;;;17.93;58.78;95545.34;4344476;32;20275;-64
2023/06/04 06:39:08;;;;;;;0.70;0.70;;;;;;;17.88;54.93;95543.66;4350669;32;20189;-64
2023/06/04 06:41:38;;;;;;;1.27;1.17;;;;;;;17.90;56.67;95551.38;4359125;32;20203;-64
2023/06/04 06:44:06;;;;;;;0.97;0.97;;;;;;;17.85;56.42;95555.88;4373237;32;20201;-64
2023/06/04 06:46:31;;;;;;;2.13;1.13;;;;;;;18.00;55.27;95556.31;4373298;32;20212;-64
2023/06/04 06:49:01;;;;;;;0.50;0.50;;;;;;;17.99;54.95;95554.75;4372096;32;20197;-64
2023/06/04 06:51:40;;;;;;;1.50;0.87;;;;;;;17.96;56.69;95558.09;4370083;32;20200;-64
2023/06/04 06:54:05;;;;;;;2.00;1.13;;;;;;;18.05;54.19;95561.47;4332852;32;20218;-64
2023/06/04 06:56:30;;;;;;;3.93;1.37;;;;;;;18.04;53.81;95554.53;4358662;32;20240;-64
2023/06/04 06:58:57;;;;;;;1.37;1.27;;;;;;;18.18;55.63;95554.97;4352338;32;20196;-64
2023/06/04 07:01:24;;;;;;;0.50;0.50;;;;;;;18.17;54.52;95553.41;4365334;32;20238;-64
2023/06/04 07:03:51;;;;;;;0.33;0.33;;;;;;;18.22;54.19;95552.41;4365425;32;20239;-64
2023/06/04 07:06:19;;;;;;;1.40;1.20;;;;;;;18.18;54.62;95549.59;4373250;32;20200;-64
2023/06/04 07:08:44;;;;;;;2.63;1.27;;;;;;;18.40;55.69;95551.84;4371934;32;20212;-64
2023/06/04 07:11:13;;;;;;;0.63;0.63;;;;;;;18.68;53.20;95543.13;4358767;32;20244;-64
2023/06/04 07:13:39;;;;;;;2.13;1.00;;;;;;;18.80;52.67;95546.53;4363745;32;20189;-64
2023/06/04 07:16:06;;;;;;;0.63;0.63;;;;;;;18.81;50.96;95545.44;4333575;32;20193;-64
2023/06/04 07:18:33;;;;;;;1.50;0.77;;;;;;;18.79;51.74;95546.88;4359565;32;20215;-64
2023/06/04 07:21:05;;;;;;;0.63;0.63;;;;;;;18.83;51.36;95543.19;4367313;32;20180;-64
2023/06/04 07:23:33;;;;;;;0.80;0.80;;;;;;;18.87;51.41;95545.97;4326667;32;20200;-64
2023/06/04 07:25:59;;;;;;;2.83;0.70;;;;;;;18.70;51.27;95546.25;4369056;32;20193;-64
2023/06/04 07:28:28;;;;;;;0.70;0.70;;;;;;;18.71;51.78;95547.78;4343825;32;20177;-64
2023/06/04 07:30:55;;;;;;;0.80;0.80;;;;;;;18.66;52.60;95538.06;4371732;32;20232;-64
2023/06/04 07:33:22;;;;;;;1.50;0.97;;;;;;;18.70;54.10;95538.19;4359815;32;20309;-64
2023/06/04 07:35:48;;;;;;;1.17;1.17;;;;;;;18.82;54.21;95535.47;4369443;32;20180;-64
2023/06/04 07:38:15;;;;;;;0.77;0.77;;;;;;;18.87;53.84;95532.53;4363111;32;20207;-64
2023/06/04 07:41:02;;;;;;;2.83;1.40;;;;;;;19.07;52.64;95545.03;4326571;32;20240;-64
2023/06/04 07:43:28;;;;;;;0.70;0.70;;;;;;;18.93;52.76;95541.91;4358984;32;20218;-64
2023/06/04 07:46:11;;;;;;;1.17;0.77;;;;;;;18.96;54.72;95538.53;4340055;32;20197;-64
2023/06/04 07:48:41;;;;;;;0.67;0.67;;;;;;;19.07;53.47;95539.63;4370538;32;20246;-64
2023/06/04 07:51:07;;;;;;;1.17;1.13;;;;;;;18.99;53.20;95539.78;4375003;32;20193;-63
2023/06/04 07:53:35;;;;;;;2.00;1.27;;;;;;;19.03;52.99;95540.66;4366361;32;20210;-64
2023/06/04 07:56:01;;;;;;;1.10;0.83;;;;;;;18.85;53.75;95548.22;4378184;32;20227;-64
2023/06/04 07:58:27;;;;;;;1.30;1.30;;;;;;;18.85;53.48;95546.31;4382396;32;20301;-64
2023/06/04 08:00:55;;;;;;;0.87;0.87;;;;;;;18.92;53.76;95539.56;4340247;32;20240;-64
2023/06/04 08:03:21;;;;;;;1.83;1.73;;;;;;;18.98;52.71;95549.75;4374710;32;20188;-64
2023/06/04 08:05:49;;;;;;;8.90;1.40;;;;;;;18.88;52.99;95544.84;4376647;32;20197;-64
2023/06/04 08:08:19;;;;;;;8.73;1.63;;;;;;;18.89;53.83;95543.75;4376008;32;20209;-64
2023/06/04 08:10:45;;;;;;;1.47;1.37;;;;;;;19.08;54.39;95537.75;4365510;32;20188;-64
2023/06/04 08:13:13;;;;;;;1.53;0.73;;;;;;;19.25;53.57;95540.13;4360098;32;20204;-64
2023/06/04 08:15:41;;;;;;;3.77;1.37;;;;;;;19.34;52.55;95538.06;4375108;32;20197;-64
2023/06/04 08:18:10;;;;;;;0.57;0.57;;;;;;;19.41;52.93;95540.16;4375034;32;20271;-64
2023/06/04 08:20:38;;;;;;;0.53;0.53;;;;;;;19.44;52.52;95544.84;4361551;32;20315;-64
2023/06/04 08:23:04;;;;;;;2.10;1.40;;;;;;;19.41;51.57;95546.31;4379281;32;20193;-64
2023/06/04 08:25:33;;;;;;;1.90;1.10;;;;;;;19.44;51.60;95544.84;4350649;32;20264;-64
2023/06/04 08:28:02;;;;;;;0.60;0.60;;;;;;;19.38;51.64;95536.25;4364969;32;20256;-64
2023/06/04 08:30:35;;;;;;;0.70;0.70;;;;;;;19.48;51.66;95541.16;4361464;32;20240;-64
2023/06/04 08:33:02;;;;;;;0.50;0.50;;;;;;;19.51;50.17;95540.50;4374814;32;20224;-64
2023/06/04 08:35:28;;;;;;;1.17;1.03;;;;;;;19.54;50.84;95544.38;4374963;32;20256;-64
2023/06/04 08:37:54;;;;;;;1.40;1.17;;;;;;;19.51;51.02;95540.50;4376664;32;20219;-64
2023/06/04 08:40:22;;;;;;;0.57;0.57;;;;;;;19.58;50.43;95555.25;4353370;32;20193;-64
2023/06/04 08:43:10;;;;;;;1.93;1.60;;;;;;;19.66;50.34;95548.94;4376104;32;20254;-64
2023/06/04 08:45:39;;;;;;;0.83;0.83;;;;;;;19.67;50.35;95551.28;4375038;32;20248;-64
2023/06/04 08:48:20;;;;;;;2.23;1.10;;;;;;;19.65;50.29;95544.66;4317621;32;20231;-64
2023/06/04 08:50:48;;;;;;;1.10;1.00;;;;;;;19.69;49.87;95545.53;4379025;32;20202;-64
2023/06/04 08:53:15;;;;;;;1.40;0.70;;;;;;;19.76;49.65;95543.81;4373108;32;20264;-64
2023/06/04 08:55:43;;;;;;;0.53;0.53;;;;;;;19.76;50.08;95545.72;4371223;32;20375;-64
2023/06/04 08:58:11;;;;;;;0.60;0.60;;;;;;;19.73;49.89;95546.44;4371987;32;20201;-64
2023/06/04 09:00:37;;;;;;;1.70;0.90;;;;;;;19.69;50.27;95540.94;4355082;32;20204;-64
2023/06/04 09:03:04;;;;;;;0.67;0.67;;;;;;;19.80;50.74;95542.00;4371393;32;20204;-64
2023/06/04 09:05:30;;;;;;;1.20;0.83;;;;;;;19.98;50.08;95549.72;4356825;32;20355;-64
2023/06/04 09:08:00;;;;;;;0.47;0.47;;;;;;;20.06;49.53;95548.78;4332954;32;20231;-64
2023/06/04 09:10:51;;;;;;;1.53;1.00;;;;;;;20.14;49.18;95545.91;4367855;32;20192;-64
2023/06/04 09:13:28;;;;;;;0.70;0.70;;;;;;;20.16;48.40;95551.72;4354858;32;20205;-64
2023/06/04 09:16:05;;;;;;;1.50;1.40;;;;;;;20.22;48.49;95538.78;4379241;32;20206;-64
2023/06/04 09:18:33;;;;;;;0.50;0.50;;;;;;;20.31;48.28;95541.28;4368706;32;20236;-64
2023/06/04 09:21:19;;;;;;;1.07;1.07;;;;;;;20.21;48.70;95547.97;4371941;32;20206;-64
2023/06/04 09:23:52;;;;;;;1.20;1.20;;;;;;;20.30;48.32;95543.19;4357138;32;20218;-64
2023/06/04 09:26:25;;;;;;;1.10;1.10;;;;;;;20.40;47.75;95544.59;4370177;32;22569;-64
2023/06/04 09:28:55;;;;;;;0.53;0.53;;;;;;;20.45;46.72;95549.72;4347705;32;20215;-64
2023/06/04 09:31:26;;;;;;;1.50;1.40;;;;;;;20.52;46.75;95542.59;4366732;32;20205;-64
2023/06/04 09:33:51;;;;;;;0.93;0.93;;;;;;;20.50;47.13;95542.16;4369560;32;20296;-64
2023/06/04 09:36:18;;;;;;;1.00;1.00;;;;;;;20.55;47.65;95541.91;4366565;32;20201;-64
2023/06/04 09:38:48;;;;;;;0.50;0.50;;;;;;;20.69;46.61;95543.34;4359347;32;20277;-64
2023/06/04 09:41:16;;;;;;;1.17;1.00;;;;;;;20.86;45.87;95540.22;4366856;32;20197;-64
2023/06/04 09:43:43;;;;;;;1.07;0.73;;;;;;;20.81;45.90;95537.81;4357067;32;20258;-64
2023/06/04 09:46:18;;;;;;;0.47;0.47;;;;;;;20.98;45.67;95532.03;4379461;32;20197;-64
2023/06/04 09:48:46;;;;;;;1.03;0.73;;;;;;;21.08;45.01;95533.34;4361419;32;20206;-63
2023/06/04 09:51:18;;;;;;;1.00;1.00;;;;;;;21.17;44.50;95531.25;4380086;32;20227;-63
2023/06/04 09:53:53;;;;;;;0.93;0.93;;;;;;;21.24;44.17;95537.56;4336729;32;20271;-63
2023/06/04 09:56:21;;;;;;;0.83;0.83;;;;;;;21.20;43.80;95533.22;4369326;32;20267;-63
2023/06/04 09:58:54;;;;;;;0.50;0.50;;;;;;;21.37;43.58;95530.12;4368042;32;20201;-63
2023/06/04 10:01:24;;;;;;;1.50;1.13;;;;;;;21.32;43.36;95535.03;4364707;32;20288;-64
2023/06/04 10:03:52;;;;;;;0.33;0.33;;;;;;;21.36;43.63;95536.66;4355251;32;20263;-64
2023/06/04 10:06:20;;;;;;;0.40;0.40;;;;;;;21.41;42.86;95533.66;4345515;32;20248;-64
2023/06/04 10:08:49;;;;;;;0.60;0.60;;;;;;;21.52;43.08;95531.16;4308782;32;20247;-63
2023/06/04 10:11:26;;;;;;;2.93;1.40;;;;;;;21.52;43.09;95531.94;4354518;32;20239;-63
2023/06/04 10:14:23;;;;;;;0.87;0.87;;;;;;;21.56;42.71;95532.00;4334295;32;20192;-64
2023/06/04 10:16:56;;;;;;;1.63;1.10;;;;;;;21.41;43.22;95524.75;4359104;32;20180;-64
2023/06/04 10:19:23;;;;;;;0.57;0.57;;;;;;;21.47;43.17;95526.03;4320418;32;20204;-64
2023/06/04 10:21:53;;;;;;;0.43;0.43;;;;;;;21.58;42.65;95527.81;4360456;32;20306;-64
2023/06/04 10:24:20;;;;;;;0.83;0.83;;;;;;;21.51;42.96;95533.06;4358301;32;20275;-64
2023/06/04 10:26:48;;;;;;;0.40;0.40;;;;;;;21.48;43.29;95533.00;4349100;32;20200;-63
2023/06/04 10:29:18;;;;;;;0.77;0.77;;;;;;;21.64;42.34;95527.50;4343180;32;20190;-64
2023/06/04 10:31:47;;;;;;;0.77;0.77;;;;;;;21.61;42.42;95529.03;4372242;32;20223;-64
2023/06/04 10:34:14;;;;;;;1.03;1.03;;;;;;;21.66;42.14;95534.09;4361497;32;20250;-64
2023/06/04 10:36:45;;;;;;;1.30;1.30;;;;;;;21.59;42.48;95542.87;4366996;32;20196;-64
2023/06/04 10:39:11;;;;;;;1.10;1.10;;;;;;;21.39;42.42;95532.47;4330620;32;20193;-64
2023/06/04 10:41:38;;;;;;;4.70;0.87;;;;;;;21.34;42.38;95535.44;4369670;32;20188;-64
2023/06/04 10:44:15;;;;;;;0.60;0.60;;;;;;;21.19;43.05;95535.16;4361501;32;20181;-64
2023/06/04 10:46:43;;;;;;;0.87;0.87;;;;;;;21.27;42.98;95534.16;4363867;32;20188;-64
2023/06/04 10:49:11;;;;;;;0.50;0.50;;;;;;;21.34;42.54;95538.16;4371545;32;20247;-63
2023/06/04 10:51:40;;;;;;;0.63;0.63;;;;;;;21.35;42.27;95527.00;4376225;32;20246;-64
2023/06/04 10:54:08;;;;;;;0.67;0.67;;;;;;;21.23;42.75;95521.72;4366418;32;20193;-64
2023/06/04 10:56:35;;;;;;;0.77;0.77;;;;;;;21.41;42.82;95516.66;4359485;32;20227;-64
2023/06/04 10:59:15;;;;;;;0.93;0.93;;;;;;;21.43;41.88;95519.78;4361258;32;20185;-64
2023/06/04 11:01:42;;;;;;;0.50;0.50;;;;;;;21.57;41.79;95517.38;4358894;32;20200;-63
2023/06/04 11:04:28;;;;;;;3.03;0.87;;;;;;;21.56;41.70;95524.69;4342411;32;20196;-63
2023/06/04 11:07:08;;;;;;;0.60;0.60;;;;;;;21.35;42.13;95526.22;4368256;32;20240;-64
2023/06/04 11:09:37;;;;;;;0.83;0.83;;;;;;;21.42;42.20;95518.22;4368887;32;20192;-64
2023/06/04 11:12:06;;;;;;;0.83;0.83;;;;;;;21.42;42.58;95518.22;4367984;32;20284;-64
2023/06/04 11:14:31;;;;;;;0.63;0.63;;;;;;;21.43;42.57;95525.19;4325067;32;20257;-64
2023/06/04 11:17:13;;;;;;;0.70;0.70;;;;;;;21.57;41.93;95517.38;4376128;32;20248;-64
2023/06/04 11:19:40;;;;;;;0.73;0.73;;;;;;;21.70;41.69;95520.66;4353412;32;20196;-64
2023/06/04 11:22:11;;;;;;;0.60;0.60;;;;;;;21.72;41.81;95511.06;4362083;32;20272;-64
2023/06/04 11:24:37;;;;;;;1.63;1.00;;;;;;;21.54;42.50;95521.56;4326550;32;20193;-63
2023/06/04 11:27:03;;;;;;;2.27;0.77;;;;;;;21.52;41.78;95520.34;4364058;32;20208;-64
2023/06/04 11:29:30;;;;;;;0.70;0.70;;;;;;;21.50;41.73;95522.62;4367037;32;20226;-64
2023/06/04 11:31:57;;;;;;;1.60;1.43;;;;;;;21.35;42.59;95512.72;4370184;32;20196;-64
2023/06/04 11:34:40;;;;;;;1.03;1.00;;;;;;;21.46;42.20;95517.16;4355451;32;20248;-64
2023/06/04 11:37:09;;;;;;;0.77;0.77;;;;;;;21.64;42.03;95514.78;4362710;32;20212;-64
2023/06/04 11:39:38;;;;;;;0.63;0.63;;;;;;;21.68;42.15;95512.94;4370724;32;20193;-63
2023/06/04 11:42:10;;;;;;;0.87;0.87;;;;;;;21.82;41.80;95518.56;4311618;32;20404;-64
2023/06/04 11:44:38;;;;;;;0.63;0.63;;;;;;;21.78;41.37;95504.25;4364112;32;20247;-63